sensor_id;sensor_type;location;lat;lon;timestamp;temperature;humidity
20712;DHT22;10517;50.742;4.224;2023-12-28T00:02:24;10.60;99.90
20712;DHT22;10517;50.742;4.224;2023-12-28T00:04:50;10.60;99.90
20712;DHT22;10517;50.742;4.224;2023-12-28T00:07:16;10.60;99.90
20712;DHT22;10517;50.742;4.224;2023-12-28T00:09:41;10.60;99.90
20712;DHT22;10517;50.742;4.224;2023-12-28T00:12:07;10.70;99.90
20712;DHT22;10517;50.742;4.224;2023-12-28T00:14:33;10.70;99.90
20712;DHT22;10517;50.742;4.224;2023-12-28T00:16:58;10.60;99.90
20712;DHT22;10517;50.742;4.224;2023-12-28T00:19:24;10.60;99.90
20712;DHT22;10517;50.742;4.224;2023-12-28T00:21:50;10.60;99.90
20712;DHT22;10517;50.742;4.224;2023-12-28T00:24:16;10.60;99.90
20712;DHT22;10517;50.742;4.224;2023-12-28T00:26:42;10.50;99.90
20712;DHT22;10517;50.742;4.224;2023-12-28T00:29:07;10.70;99.90
20712;DHT22;10517;50.742;4.224;2023-12-28T00:31:33;10.70;99.90
20712;DHT22;10517;50.742;4.224;2023-12-28T00:33:58;10.80;99.90
20712;DHT22;10517;50.742;4.224;2023-12-28T00:36:24;10.70;99.90
20712;DHT22;10517;50.742;4.224;2023-12-28T00:38:49;10.80;99.90
20712;DHT22;10517;50.742;4.224;2023-12-28T00:41:15;10.70;99.90
20712;DHT22;10517;50.742;4.224;2023-12-28T00:43:41;10.70;99.90
20712;DHT22;10517;50.742;4.224;2023-12-28T00:46:06;10.70;99.90
20712;DHT22;10517;50.742;4.224;2023-12-28T00:48:32;10.60;99.90
20712;DHT22;10517;50.742;4.224;2023-12-28T00:50:57;10.60;99.90
20712;DHT22;10517;50.742;4.224;2023-12-28T00:53:26;10.70;99.90
20712;DHT22;10517;50.742;4.224;2023-12-28T00:55:52;10.60;99.90
20712;DHT22;10517;50.742;4.224;2023-12-28T00:58:18;10.60;99.90
20712;DHT22;10517;50.742;4.224;2023-12-28T01:00:43;10.60;99.90
20712;DHT22;10517;50.742;4.224;2023-12-28T01:03:09;10.50;99.90
20712;DHT22;10517;50.742;4.224;2023-12-28T01:05:35;10.50;99.90
20712;DHT22;10517;50.742;4.224;2023-12-28T01:08:00;10.50;99.90
20712;DHT22;10517;50.742;4.224;2023-12-28T01:10:26;10.50;99.90
20712;DHT22;10517;50.742;4.224;2023-12-28T01:12:51;10.60;99.90
20712;DHT22;10517;50.742;4.224;2023-12-28T01:15:17;10.50;99.90
20712;DHT22;10517;50.742;4.224;2023-12-28T01:17:43;10.50;99.90
20712;DHT22;10517;50.742;4.224;2023-12-28T01:20:09;10.50;99.90
20712;DHT22;10517;50.742;4.224;2023-12-28T01:22:35;10.50;99.90
20712;DHT22;10517;50.742;4.224;2023-12-28T01:25:00;10.50;99.90
20712;DHT22;10517;50.742;4.224;2023-12-28T01:27:26;10.60;99.90
20712;DHT22;10517;50.742;4.224;2023-12-28T01:29:52;10.50;99.90
20712;DHT22;10517;50.742;4.224;2023-12-28T01:32:17;10.50;99.90
20712;DHT22;10517;50.742;4.224;2023-12-28T01:34:43;10.60;99.90
20712;DHT22;10517;50.742;4.224;2023-12-28T01:37:08;10.60;99.90
20712;DHT22;10517;50.742;4.224;2023-12-28T01:39:34;10.50;99.90
20712;DHT22;10517;50.742;4.224;2023-12-28T01:42:00;10.50;99.90
20712;DHT22;10517;50.742;4.224;2023-12-28T01:44:25;10.50;99.90
20712;DHT22;10517;50.742;4.224;2023-12-28T01:46:51;10.50;99.90
20712;DHT22;10517;50.742;4.224;2023-12-28T01:49:17;10.60;99.90
20712;DHT22;10517;50.742;4.224;2023-12-28T01:51:44;10.60;99.90
20712;DHT22;10517;50.742;4.224;2023-12-28T01:54:10;10.60;99.90
20712;DHT22;10517;50.742;4.224;2023-12-28T01:56:36;10.50;99.90
20712;DHT22;10517;50.742;4.224;2023-12-28T01:59:03;10.50;99.90
20712;DHT22;10517;50.742;4.224;2023-12-28T02:01:28;10.60;99.90
20712;DHT22;10517;50.742;4.224;2023-12-28T02:03:55;10.50;99.90
20712;DHT22;10517;50.742;4.224;2023-12-28T02:06:23;10.60;99.90
20712;DHT22;10517;50.742;4.224;2023-12-28T02:08:49;10.60;99.90
20712;DHT22;10517;50.742;4.224;2023-12-28T02:11:14;10.60;99.90
20712;DHT22;10517;50.742;4.224;2023-12-28T02:13:40;10.70;99.90
20712;DHT22;10517;50.742;4.224;2023-12-28T02:16:24;10.70;99.90
20712;DHT22;10517;50.742;4.224;2023-12-28T02:18:52;10.70;99.90
20712;DHT22;10517;50.742;4.224;2023-12-28T02:21:20;10.70;99.90
20712;DHT22;10517;50.742;4.224;2023-12-28T02:23:49;10.70;99.90
20712;DHT22;10517;50.742;4.224;2023-12-28T02:26:18;10.70;99.90
20712;DHT22;10517;50.742;4.224;2023-12-28T02:28:47;10.60;99.90
20712;DHT22;10517;50.742;4.224;2023-12-28T02:31:21;10.60;99.90
20712;DHT22;10517;50.742;4.224;2023-12-28T02:33:56;10.60;99.90
20712;DHT22;10517;50.742;4.224;2023-12-28T02:36:23;10.60;99.90
20712;DHT22;10517;50.742;4.224;2023-12-28T02:38:51;10.60;99.90
20712;DHT22;10517;50.742;4.224;2023-12-28T02:41:18;10.60;99.90
20712;DHT22;10517;50.742;4.224;2023-12-28T02:43:44;10.60;99.90
20712;DHT22;10517;50.742;4.224;2023-12-28T02:46:12;10.60;99.90
20712;DHT22;10517;50.742;4.224;2023-12-28T02:48:37;10.60;99.90
20712;DHT22;10517;50.742;4.224;2023-12-28T02:51:03;10.70;99.90
20712;DHT22;10517;50.742;4.224;2023-12-28T02:53:29;10.60;99.90
20712;DHT22;10517;50.742;4.224;2023-12-28T02:55:54;10.60;99.90
20712;DHT22;10517;50.742;4.224;2023-12-28T02:58:20;10.60;99.90
20712;DHT22;10517;50.742;4.224;2023-12-28T03:00:46;10.60;99.90
20712;DHT22;10517;50.742;4.224;2023-12-28T03:03:12;10.60;99.90
20712;DHT22;10517;50.742;4.224;2023-12-28T03:05:37;10.70;99.90
20712;DHT22;10517;50.742;4.224;2023-12-28T03:08:03;10.70;99.90
20712;DHT22;10517;50.742;4.224;2023-12-28T03:10:29;10.70;99.90
20712;DHT22;10517;50.742;4.224;2023-12-28T03:12:54;10.70;99.90
20712;DHT22;10517;50.742;4.224;2023-12-28T03:15:20;10.80;99.90
20712;DHT22;10517;50.742;4.224;2023-12-28T03:17:46;10.80;99.90
20712;DHT22;10517;50.742;4.224;2023-12-28T03:20:12;10.80;99.90
20712;DHT22;10517;50.742;4.224;2023-12-28T03:22:37;10.80;99.90
20712;DHT22;10517;50.742;4.224;2023-12-28T03:25:03;10.80;99.90
20712;DHT22;10517;50.742;4.224;2023-12-28T03:27:29;10.80;99.90
20712;DHT22;10517;50.742;4.224;2023-12-28T03:29:55;10.80;99.90
20712;DHT22;10517;50.742;4.224;2023-12-28T03:32:20;10.80;99.90
20712;DHT22;10517;50.742;4.224;2023-12-28T03:34:46;10.70;99.90
20712;DHT22;10517;50.742;4.224;2023-12-28T03:37:11;10.80;99.90
20712;DHT22;10517;50.742;4.224;2023-12-28T03:39:37;10.80;99.90
20712;DHT22;10517;50.742;4.224;2023-12-28T03:42:03;10.70;99.90
20712;DHT22;10517;50.742;4.224;2023-12-28T03:44:29;10.70;99.90
20712;DHT22;10517;50.742;4.224;2023-12-28T03:46:54;10.70;99.90
20712;DHT22;10517;50.742;4.224;2023-12-28T03:49:21;10.70;99.90
20712;DHT22;10517;50.742;4.224;2023-12-28T03:51:49;10.70;99.90
20712;DHT22;10517;50.742;4.224;2023-12-28T03:54:18;10.70;99.90
20712;DHT22;10517;50.742;4.224;2023-12-28T03:56:45;10.70;99.90
20712;DHT22;10517;50.742;4.224;2023-12-28T03:59:10;10.70;99.90
20712;DHT22;10517;50.742;4.224;2023-12-28T04:01:36;10.70;99.90
20712;DHT22;10517;50.742;4.224;2023-12-28T04:04:02;10.80;99.90
20712;DHT22;10517;50.742;4.224;2023-12-28T04:06:28;10.80;99.90
20712;DHT22;10517;50.742;4.224;2023-12-28T04:08:53;10.90;99.90
20712;DHT22;10517;50.742;4.224;2023-12-28T04:11:19;10.90;99.90
20712;DHT22;10517;50.742;4.224;2023-12-28T04:13:45;10.80;99.90
20712;DHT22;10517;50.742;4.224;2023-12-28T04:16:14;10.80;99.90
20712;DHT22;10517;50.742;4.224;2023-12-28T04:18:40;10.80;99.90
20712;DHT22;10517;50.742;4.224;2023-12-28T04:21:12;10.80;99.90
20712;DHT22;10517;50.742;4.224;2023-12-28T04:23:39;10.70;99.90
20712;DHT22;10517;50.742;4.224;2023-12-28T04:26:08;10.70;99.90
20712;DHT22;10517;50.742;4.224;2023-12-28T04:28:34;10.80;99.90
20712;DHT22;10517;50.742;4.224;2023-12-28T04:31:07;10.80;99.90
20712;DHT22;10517;50.742;4.224;2023-12-28T04:33:33;10.70;99.90
20712;DHT22;10517;50.742;4.224;2023-12-28T04:36:03;10.60;99.90
20712;DHT22;10517;50.742;4.224;2023-12-28T04:38:32;10.60;99.90
20712;DHT22;10517;50.742;4.224;2023-12-28T04:40:58;10.70;99.90
20712;DHT22;10517;50.742;4.224;2023-12-28T04:43:24;10.60;99.90
20712;DHT22;10517;50.742;4.224;2023-12-28T04:45:51;10.60;99.90
20712;DHT22;10517;50.742;4.224;2023-12-28T04:48:16;10.50;99.90
20712;DHT22;10517;50.742;4.224;2023-12-28T04:50:47;10.50;99.90
20712;DHT22;10517;50.742;4.224;2023-12-28T04:53:13;10.60;99.90
20712;DHT22;10517;50.742;4.224;2023-12-28T04:55:39;10.50;99.90
20712;DHT22;10517;50.742;4.224;2023-12-28T04:58:04;10.40;99.90
20712;DHT22;10517;50.742;4.224;2023-12-28T05:00:30;10.40;99.90
20712;DHT22;10517;50.742;4.224;2023-12-28T05:02:56;10.40;99.90
20712;DHT22;10517;50.742;4.224;2023-12-28T05:05:21;10.40;99.90
20712;DHT22;10517;50.742;4.224;2023-12-28T05:07:47;10.40;99.90
20712;DHT22;10517;50.742;4.224;2023-12-28T05:10:13;10.50;99.90
20712;DHT22;10517;50.742;4.224;2023-12-28T05:12:38;10.40;99.90
20712;DHT22;10517;50.742;4.224;2023-12-28T05:15:04;10.40;99.90
20712;DHT22;10517;50.742;4.224;2023-12-28T05:17:30;10.40;99.90
20712;DHT22;10517;50.742;4.224;2023-12-28T05:19:56;10.40;99.90
20712;DHT22;10517;50.742;4.224;2023-12-28T05:22:21;10.30;99.90
20712;DHT22;10517;50.742;4.224;2023-12-28T05:24:47;10.40;99.90
20712;DHT22;10517;50.742;4.224;2023-12-28T05:27:13;10.40;99.90
20712;DHT22;10517;50.742;4.224;2023-12-28T05:29:38;10.40;99.90
20712;DHT22;10517;50.742;4.224;2023-12-28T05:32:05;10.40;99.90
20712;DHT22;10517;50.742;4.224;2023-12-28T05:34:30;10.60;99.90
20712;DHT22;10517;50.742;4.224;2023-12-28T05:36:56;10.70;99.90
20712;DHT22;10517;50.742;4.224;2023-12-28T05:39:22;10.70;99.90
20712;DHT22;10517;50.742;4.224;2023-12-28T05:41:47;10.80;99.90
20712;DHT22;10517;50.742;4.224;2023-12-28T05:44:16;10.80;99.90
20712;DHT22;10517;50.742;4.224;2023-12-28T05:46:42;10.80;99.90
20712;DHT22;10517;50.742;4.224;2023-12-28T05:49:07;10.80;99.90
20712;DHT22;10517;50.742;4.224;2023-12-28T05:51:39;10.90;99.90
20712;DHT22;10517;50.742;4.224;2023-12-28T05:54:06;10.80;99.90
20712;DHT22;10517;50.742;4.224;2023-12-28T05:56:31;10.70;99.90
20712;DHT22;10517;50.742;4.224;2023-12-28T05:58:57;10.70;99.90
20712;DHT22;10517;50.742;4.224;2023-12-28T06:01:23;10.70;99.90
20712;DHT22;10517;50.742;4.224;2023-12-28T06:03:48;10.70;99.90
20712;DHT22;10517;50.742;4.224;2023-12-28T06:06:18;10.70;99.90
20712;DHT22;10517;50.742;4.224;2023-12-28T06:08:44;10.60;99.90
20712;DHT22;10517;50.742;4.224;2023-12-28T06:11:10;10.60;99.90
20712;DHT22;10517;50.742;4.224;2023-12-28T06:13:35;10.50;99.90
20712;DHT22;10517;50.742;4.224;2023-12-28T06:16:01;10.50;99.90
20712;DHT22;10517;50.742;4.224;2023-12-28T06:18:27;10.30;99.90
20712;DHT22;10517;50.742;4.224;2023-12-28T06:20:52;10.30;99.90
20712;DHT22;10517;50.742;4.224;2023-12-28T06:23:18;10.30;99.90
20712;DHT22;10517;50.742;4.224;2023-12-28T06:25:43;10.30;99.90
20712;DHT22;10517;50.742;4.224;2023-12-28T06:28:09;10.30;99.90
20712;DHT22;10517;50.742;4.224;2023-12-28T06:30:35;10.30;99.90
20712;DHT22;10517;50.742;4.224;2023-12-28T06:33:00;10.20;99.90
20712;DHT22;10517;50.742;4.224;2023-12-28T06:35:26;10.20;99.90
20712;DHT22;10517;50.742;4.224;2023-12-28T06:37:51;10.20;99.90
20712;DHT22;10517;50.742;4.224;2023-12-28T06:40:17;10.20;99.90
20712;DHT22;10517;50.742;4.224;2023-12-28T06:42:43;10.10;99.90
20712;DHT22;10517;50.742;4.224;2023-12-28T06:45:09;10.10;99.90
20712;DHT22;10517;50.742;4.224;2023-12-28T06:47:35;10.20;99.90
20712;DHT22;10517;50.742;4.224;2023-12-28T06:50:01;10.10;99.90
20712;DHT22;10517;50.742;4.224;2023-12-28T06:52:27;10.10;99.90
20712;DHT22;10517;50.742;4.224;2023-12-28T06:54:52;10.10;99.90
20712;DHT22;10517;50.742;4.224;2023-12-28T06:57:18;10.00;99.90
20712;DHT22;10517;50.742;4.224;2023-12-28T06:59:44;10.00;99.90
20712;DHT22;10517;50.742;4.224;2023-12-28T07:02:10;10.00;99.90
20712;DHT22;10517;50.742;4.224;2023-12-28T07:04:36;10.00;99.90
20712;DHT22;10517;50.742;4.224;2023-12-28T07:07:01;10.00;99.90
20712;DHT22;10517;50.742;4.224;2023-12-28T07:09:27;10.00;99.90
20712;DHT22;10517;50.742;4.224;2023-12-28T07:11:53;10.10;99.90
20712;DHT22;10517;50.742;4.224;2023-12-28T07:14:18;10.00;99.90
20712;DHT22;10517;50.742;4.224;2023-12-28T07:16:44;10.00;99.90
20712;DHT22;10517;50.742;4.224;2023-12-28T07:19:10;10.00;99.90
20712;DHT22;10517;50.742;4.224;2023-12-28T07:21:37;10.00;99.90
20712;DHT22;10517;50.742;4.224;2023-12-28T07:24:03;9.90;99.90
20712;DHT22;10517;50.742;4.224;2023-12-28T07:26:29;10.00;99.90
20712;DHT22;10517;50.742;4.224;2023-12-28T07:28:54;10.00;99.90
20712;DHT22;10517;50.742;4.224;2023-12-28T07:31:29;10.00;99.90
20712;DHT22;10517;50.742;4.224;2023-12-28T07:33:56;10.00;99.90
20712;DHT22;10517;50.742;4.224;2023-12-28T07:36:22;10.00;99.90
20712;DHT22;10517;50.742;4.224;2023-12-28T07:38:48;10.00;99.90
20712;DHT22;10517;50.742;4.224;2023-12-28T07:41:14;10.00;99.90
20712;DHT22;10517;50.742;4.224;2023-12-28T07:43:39;10.00;99.90
20712;DHT22;10517;50.742;4.224;2023-12-28T07:46:05;10.00;99.90
20712;DHT22;10517;50.742;4.224;2023-12-28T07:48:31;10.00;99.90
20712;DHT22;10517;50.742;4.224;2023-12-28T07:50:57;10.10;99.90
20712;DHT22;10517;50.742;4.224;2023-12-28T07:53:23;10.00;99.90
20712;DHT22;10517;50.742;4.224;2023-12-28T07:55:49;10.00;99.90
20712;DHT22;10517;50.742;4.224;2023-12-28T07:58:15;10.00;99.90
20712;DHT22;10517;50.742;4.224;2023-12-28T08:00:40;10.00;99.90
20712;DHT22;10517;50.742;4.224;2023-12-28T08:03:06;10.00;99.90
20712;DHT22;10517;50.742;4.224;2023-12-28T08:05:32;10.10;99.90
20712;DHT22;10517;50.742;4.224;2023-12-28T08:07:58;10.10;99.90
20712;DHT22;10517;50.742;4.224;2023-12-28T08:10:23;10.10;99.90
20712;DHT22;10517;50.742;4.224;2023-12-28T08:12:49;10.10;99.90
20712;DHT22;10517;50.742;4.224;2023-12-28T08:15:14;10.10;99.90
20712;DHT22;10517;50.742;4.224;2023-12-28T08:17:40;10.10;99.90
20712;DHT22;10517;50.742;4.224;2023-12-28T08:20:06;10.10;99.90
20712;DHT22;10517;50.742;4.224;2023-12-28T08:22:32;10.20;99.90
20712;DHT22;10517;50.742;4.224;2023-12-28T08:24:58;10.20;99.90
20712;DHT22;10517;50.742;4.224;2023-12-28T08:27:24;10.20;99.90
20712;DHT22;10517;50.742;4.224;2023-12-28T08:29:50;10.20;99.90
20712;DHT22;10517;50.742;4.224;2023-12-28T08:32:15;10.20;99.90
20712;DHT22;10517;50.742;4.224;2023-12-28T08:34:42;10.20;99.90
20712;DHT22;10517;50.742;4.224;2023-12-28T08:37:08;10.30;99.90
20712;DHT22;10517;50.742;4.224;2023-12-28T08:39:34;10.30;99.90
20712;DHT22;10517;50.742;4.224;2023-12-28T08:42:00;10.30;99.90
20712;DHT22;10517;50.742;4.224;2023-12-28T08:44:26;10.40;99.90
20712;DHT22;10517;50.742;4.224;2023-12-28T08:46:51;10.30;99.90
20712;DHT22;10517;50.742;4.224;2023-12-28T08:49:17;10.40;99.90
20712;DHT22;10517;50.742;4.224;2023-12-28T08:51:42;10.40;99.90
20712;DHT22;10517;50.742;4.224;2023-12-28T08:54:08;10.40;99.90
20712;DHT22;10517;50.742;4.224;2023-12-28T08:56:34;10.40;99.90
20712;DHT22;10517;50.742;4.224;2023-12-28T08:59:01;10.40;99.90
20712;DHT22;10517;50.742;4.224;2023-12-28T09:01:26;10.40;99.90
20712;DHT22;10517;50.742;4.224;2023-12-28T09:03:55;10.50;99.90
20712;DHT22;10517;50.742;4.224;2023-12-28T09:06:22;10.50;99.90
20712;DHT22;10517;50.742;4.224;2023-12-28T09:08:52;10.50;99.90
20712;DHT22;10517;50.742;4.224;2023-12-28T09:11:18;10.50;99.90
20712;DHT22;10517;50.742;4.224;2023-12-28T09:13:44;10.50;99.90
20712;DHT22;10517;50.742;4.224;2023-12-28T09:16:12;10.60;99.90
20712;DHT22;10517;50.742;4.224;2023-12-28T09:18:38;10.60;99.90
20712;DHT22;10517;50.742;4.224;2023-12-28T09:21:04;10.50;99.90
20712;DHT22;10517;50.742;4.224;2023-12-28T09:23:31;10.50;99.90
20712;DHT22;10517;50.742;4.224;2023-12-28T09:26:00;10.60;99.90
20712;DHT22;10517;50.742;4.224;2023-12-28T09:28:26;10.70;99.90
20712;DHT22;10517;50.742;4.224;2023-12-28T09:30:52;10.70;99.90
20712;DHT22;10517;50.742;4.224;2023-12-28T09:33:17;10.80;99.90
20712;DHT22;10517;50.742;4.224;2023-12-28T09:35:43;10.90;99.90
20712;DHT22;10517;50.742;4.224;2023-12-28T09:38:09;11.00;99.90
20712;DHT22;10517;50.742;4.224;2023-12-28T09:40:38;11.10;99.90
20712;DHT22;10517;50.742;4.224;2023-12-28T09:45:51;11.30;99.90
20712;DHT22;10517;50.742;4.224;2023-12-28T09:48:17;11.30;99.90
20712;DHT22;10517;50.742;4.224;2023-12-28T09:50:53;11.30;99.90
20712;DHT22;10517;50.742;4.224;2023-12-28T09:53:26;11.30;99.90
20712;DHT22;10517;50.742;4.224;2023-12-28T09:55:52;11.40;99.90
20712;DHT22;10517;50.742;4.224;2023-12-28T09:58:19;11.30;99.90
20712;DHT22;10517;50.742;4.224;2023-12-28T10:00:46;11.30;99.90
20712;DHT22;10517;50.742;4.224;2023-12-28T10:03:13;11.30;99.90
20712;DHT22;10517;50.742;4.224;2023-12-28T10:05:40;11.30;99.90
20712;DHT22;10517;50.742;4.224;2023-12-28T10:08:06;11.30;99.90
20712;DHT22;10517;50.742;4.224;2023-12-28T10:10:32;11.40;99.90
20712;DHT22;10517;50.742;4.224;2023-12-28T10:13:00;11.40;99.90
20712;DHT22;10517;50.742;4.224;2023-12-28T10:15:25;11.50;99.90
20712;DHT22;10517;50.742;4.224;2023-12-28T10:17:54;11.50;99.90
20712;DHT22;10517;50.742;4.224;2023-12-28T10:20:20;11.60;99.90
20712;DHT22;10517;50.742;4.224;2023-12-28T10:22:46;11.60;99.90
20712;DHT22;10517;50.742;4.224;2023-12-28T10:25:12;11.60;99.90
20712;DHT22;10517;50.742;4.224;2023-12-28T10:27:41;11.60;99.90
20712;DHT22;10517;50.742;4.224;2023-12-28T10:30:09;11.70;99.90
20712;DHT22;10517;50.742;4.224;2023-12-28T10:32:39;11.70;99.90
20712;DHT22;10517;50.742;4.224;2023-12-28T10:35:05;11.80;99.90
20712;DHT22;10517;50.742;4.224;2023-12-28T10:37:32;11.80;99.90
20712;DHT22;10517;50.742;4.224;2023-12-28T10:39:59;11.70;99.90
20712;DHT22;10517;50.742;4.224;2023-12-28T10:42:31;11.70;99.90
20712;DHT22;10517;50.742;4.224;2023-12-28T10:45:05;11.80;99.90
20712;DHT22;10517;50.742;4.224;2023-12-28T10:47:32;11.80;99.90
20712;DHT22;10517;50.742;4.224;2023-12-28T10:50:04;11.80;99.90
20712;DHT22;10517;50.742;4.224;2023-12-28T10:52:33;11.90;99.90
20712;DHT22;10517;50.742;4.224;2023-12-28T10:57:40;12.00;99.90
20712;DHT22;10517;50.742;4.224;2023-12-28T11:00:11;12.20;99.90
20712;DHT22;10517;50.742;4.224;2023-12-28T11:02:39;12.10;99.90
20712;DHT22;10517;50.742;4.224;2023-12-28T11:05:07;12.20;99.90
20712;DHT22;10517;50.742;4.224;2023-12-28T11:07:33;12.40;99.90
20712;DHT22;10517;50.742;4.224;2023-12-28T11:10:02;12.40;99.90
20712;DHT22;10517;50.742;4.224;2023-12-28T11:12:30;12.40;99.90
20712;DHT22;10517;50.742;4.224;2023-12-28T11:14:57;12.50;99.90
20712;DHT22;10517;50.742;4.224;2023-12-28T11:17:23;12.30;99.90
20712;DHT22;10517;50.742;4.224;2023-12-28T11:19:53;12.40;99.90
20712;DHT22;10517;50.742;4.224;2023-12-28T11:22:21;12.40;99.90
20712;DHT22;10517;50.742;4.224;2023-12-28T11:24:47;12.40;99.90
20712;DHT22;10517;50.742;4.224;2023-12-28T11:27:13;12.40;99.90
20712;DHT22;10517;50.742;4.224;2023-12-28T11:29:41;12.40;99.90
20712;DHT22;10517;50.742;4.224;2023-12-28T11:32:08;12.50;99.90
20712;DHT22;10517;50.742;4.224;2023-12-28T11:34:33;12.50;99.90
20712;DHT22;10517;50.742;4.224;2023-12-28T11:37:19;12.60;99.90
20712;DHT22;10517;50.742;4.224;2023-12-28T11:39:48;12.70;99.90
20712;DHT22;10517;50.742;4.224;2023-12-28T11:42:19;12.70;99.90
20712;DHT22;10517;50.742;4.224;2023-12-28T11:44:46;12.60;99.90
20712;DHT22;10517;50.742;4.224;2023-12-28T11:47:16;12.60;99.90
20712;DHT22;10517;50.742;4.224;2023-12-28T11:49:43;12.60;99.90
20712;DHT22;10517;50.742;4.224;2023-12-28T11:52:31;12.70;99.90
20712;DHT22;10517;50.742;4.224;2023-12-28T11:54:58;12.80;99.90
20712;DHT22;10517;50.742;4.224;2023-12-28T11:57:25;12.70;99.90
20712;DHT22;10517;50.742;4.224;2023-12-28T11:59:56;12.70;99.90
20712;DHT22;10517;50.742;4.224;2023-12-28T12:02:22;12.60;99.90
20712;DHT22;10517;50.742;4.224;2023-12-28T12:04:48;12.60;99.90
20712;DHT22;10517;50.742;4.224;2023-12-28T12:07:14;12.60;99.90
20712;DHT22;10517;50.742;4.224;2023-12-28T12:09:39;12.70;99.90
20712;DHT22;10517;50.742;4.224;2023-12-28T12:12:07;12.80;99.90
20712;DHT22;10517;50.742;4.224;2023-12-28T12:14:34;12.70;99.90
20712;DHT22;10517;50.742;4.224;2023-12-28T12:17:00;12.80;99.90
20712;DHT22;10517;50.742;4.224;2023-12-28T12:19:26;12.70;99.90
20712;DHT22;10517;50.742;4.224;2023-12-28T12:21:52;12.60;99.90
20712;DHT22;10517;50.742;4.224;2023-12-28T12:24:19;12.50;99.90
20712;DHT22;10517;50.742;4.224;2023-12-28T12:26:47;12.40;99.90
20712;DHT22;10517;50.742;4.224;2023-12-28T12:29:14;12.30;99.90
20712;DHT22;10517;50.742;4.224;2023-12-28T12:31:44;12.30;99.90
20712;DHT22;10517;50.742;4.224;2023-12-28T12:34:10;12.30;99.90
20712;DHT22;10517;50.742;4.224;2023-12-28T12:36:37;12.20;99.90
20712;DHT22;10517;50.742;4.224;2023-12-28T12:39:03;12.30;99.90
20712;DHT22;10517;50.742;4.224;2023-12-28T12:41:32;12.40;99.90
20712;DHT22;10517;50.742;4.224;2023-12-28T12:43:58;12.40;99.90
20712;DHT22;10517;50.742;4.224;2023-12-28T12:46:25;12.30;99.90
20712;DHT22;10517;50.742;4.224;2023-12-28T12:48:57;12.10;99.90
20712;DHT22;10517;50.742;4.224;2023-12-28T12:51:24;12.10;99.90
20712;DHT22;10517;50.742;4.224;2023-12-28T12:53:50;12.10;99.90
20712;DHT22;10517;50.742;4.224;2023-12-28T12:56:15;12.10;99.90
20712;DHT22;10517;50.742;4.224;2023-12-28T12:58:43;12.10;99.90
20712;DHT22;10517;50.742;4.224;2023-12-28T13:01:12;12.10;99.90
20712;DHT22;10517;50.742;4.224;2023-12-28T13:03:37;12.00;99.90
20712;DHT22;10517;50.742;4.224;2023-12-28T13:06:03;12.00;99.90
20712;DHT22;10517;50.742;4.224;2023-12-28T13:08:29;12.00;99.90
20712;DHT22;10517;50.742;4.224;2023-12-28T13:10:55;12.00;99.90
20712;DHT22;10517;50.742;4.224;2023-12-28T13:13:20;12.10;99.90
20712;DHT22;10517;50.742;4.224;2023-12-28T13:15:46;12.00;99.90
20712;DHT22;10517;50.742;4.224;2023-12-28T13:18:12;12.00;99.90
20712;DHT22;10517;50.742;4.224;2023-12-28T13:20:38;12.00;99.90
20712;DHT22;10517;50.742;4.224;2023-12-28T13:23:03;12.00;99.90
20712;DHT22;10517;50.742;4.224;2023-12-28T13:25:29;12.10;99.90
20712;DHT22;10517;50.742;4.224;2023-12-28T13:27:55;12.10;99.90
20712;DHT22;10517;50.742;4.224;2023-12-28T13:30:20;12.20;99.90
20712;DHT22;10517;50.742;4.224;2023-12-28T13:32:47;12.20;99.90
20712;DHT22;10517;50.742;4.224;2023-12-28T13:35:13;12.10;99.90
20712;DHT22;10517;50.742;4.224;2023-12-28T13:37:38;12.00;99.90
20712;DHT22;10517;50.742;4.224;2023-12-28T13:40:05;12.00;99.90
20712;DHT22;10517;50.742;4.224;2023-12-28T13:42:32;12.00;99.90
20712;DHT22;10517;50.742;4.224;2023-12-28T13:44:58;12.00;99.90
20712;DHT22;10517;50.742;4.224;2023-12-28T13:47:23;12.00;99.90
20712;DHT22;10517;50.742;4.224;2023-12-28T13:49:49;12.00;99.90
20712;DHT22;10517;50.742;4.224;2023-12-28T13:52:15;12.00;99.90
20712;DHT22;10517;50.742;4.224;2023-12-28T13:54:41;12.00;99.90
20712;DHT22;10517;50.742;4.224;2023-12-28T13:57:07;12.20;99.90
20712;DHT22;10517;50.742;4.224;2023-12-28T13:59:33;12.20;99.90
20712;DHT22;10517;50.742;4.224;2023-12-28T14:01:59;12.40;99.90
20712;DHT22;10517;50.742;4.224;2023-12-28T14:04:25;12.40;99.90
20712;DHT22;10517;50.742;4.224;2023-12-28T14:06:50;12.30;99.90
20712;DHT22;10517;50.742;4.224;2023-12-28T14:09:16;12.30;99.90
20712;DHT22;10517;50.742;4.224;2023-12-28T14:11:46;12.30;99.90
20712;DHT22;10517;50.742;4.224;2023-12-28T14:14:12;12.20;99.90
20712;DHT22;10517;50.742;4.224;2023-12-28T14:16:38;12.00;99.90
20712;DHT22;10517;50.742;4.224;2023-12-28T14:19:04;12.00;99.90
20712;DHT22;10517;50.742;4.224;2023-12-28T14:21:35;11.90;99.90
20712;DHT22;10517;50.742;4.224;2023-12-28T14:24:01;11.90;99.90
20712;DHT22;10517;50.742;4.224;2023-12-28T14:26:27;11.80;99.90
20712;DHT22;10517;50.742;4.224;2023-12-28T14:28:53;11.80;99.90
20712;DHT22;10517;50.742;4.224;2023-12-28T14:31:19;11.70;99.90
20712;DHT22;10517;50.742;4.224;2023-12-28T14:33:45;11.80;99.90
20712;DHT22;10517;50.742;4.224;2023-12-28T14:36:30;11.80;99.90
20712;DHT22;10517;50.742;4.224;2023-12-28T14:39:03;11.80;99.90
20712;DHT22;10517;50.742;4.224;2023-12-28T14:41:37;11.80;99.90
20712;DHT22;10517;50.742;4.224;2023-12-28T14:44:03;11.80;99.90
20712;DHT22;10517;50.742;4.224;2023-12-28T14:46:30;11.70;99.90
20712;DHT22;10517;50.742;4.224;2023-12-28T14:48:56;11.60;99.90
20712;DHT22;10517;50.742;4.224;2023-12-28T14:51:22;11.60;99.90
20712;DHT22;10517;50.742;4.224;2023-12-28T14:53:48;11.60;99.90
20712;DHT22;10517;50.742;4.224;2023-12-28T14:56:14;11.60;99.90
20712;DHT22;10517;50.742;4.224;2023-12-28T14:58:43;11.60;99.90
20712;DHT22;10517;50.742;4.224;2023-12-28T15:01:17;11.60;99.90
20712;DHT22;10517;50.742;4.224;2023-12-28T15:03:45;11.60;99.90
20712;DHT22;10517;50.742;4.224;2023-12-28T15:06:11;11.50;99.90
20712;DHT22;10517;50.742;4.224;2023-12-28T15:08:37;11.40;99.90
20712;DHT22;10517;50.742;4.224;2023-12-28T15:11:03;11.40;99.90
20712;DHT22;10517;50.742;4.224;2023-12-28T15:13:29;11.40;99.90
20712;DHT22;10517;50.742;4.224;2023-12-28T15:15:55;11.30;99.90
20712;DHT22;10517;50.742;4.224;2023-12-28T15:18:21;11.30;99.90
20712;DHT22;10517;50.742;4.224;2023-12-28T15:20:47;11.30;99.90
20712;DHT22;10517;50.742;4.224;2023-12-28T15:23:14;11.30;99.90
20712;DHT22;10517;50.742;4.224;2023-12-28T15:25:41;11.30;99.90
20712;DHT22;10517;50.742;4.224;2023-12-28T15:28:07;11.30;99.90
20712;DHT22;10517;50.742;4.224;2023-12-28T15:30:33;11.30;99.90
20712;DHT22;10517;50.742;4.224;2023-12-28T15:33:00;11.30;99.90